sensor_id;sensor_type;location;lat;lon;timestamp;P1;durP1;ratioP1;P2;durP2;ratioP2
3149;SDS011;32503;47.748;8.960;2022-12-29T00:00:09;2.70;;;2.57;;
3149;SDS011;32503;47.748;8.960;2022-12-29T00:02:39;2.77;;;2.67;;
3149;SDS011;32503;47.748;8.960;2022-12-29T00:05:06;2.80;;;2.10;;
3149;SDS011;32503;47.748;8.960;2022-12-29T00:07:34;3.20;;;2.80;;
3149;SDS011;32503;47.748;8.960;2022-12-29T00:10:01;4.60;;;4.30;;
3149;SDS011;32503;47.748;8.960;2022-12-29T00:12:29;4.20;;;3.90;;
3149;SDS011;32503;47.748;8.960;2022-12-29T00:15:16;4.50;;;4.20;;
3149;SDS011;32503;47.748;8.960;2022-12-29T00:18:02;3.47;;;3.17;;
3149;SDS011;32503;47.748;8.960;2022-12-29T00:20:29;3.60;;;3.40;;
3149;SDS011;32503;47.748;8.960;2022-12-29T00:23:17;3.20;;;2.90;;
3149;SDS011;32503;47.748;8.960;2022-12-29T00:26:02;3.37;;;2.90;;
3149;SDS011;32503;47.748;8.960;2022-12-29T00:28:52;4.07;;;3.67;;
3149;SDS011;32503;47.748;8.960;2022-12-29T00:31:36;4.63;;;4.23;;
3149;SDS011;32503;47.748;8.960;2022-12-29T00:34:22;3.73;;;3.43;;
3149;SDS011;32503;47.748;8.960;2022-12-29T00:37:07;7.00;;;4.03;;
3149;SDS011;32503;47.748;8.960;2022-12-29T00:39:34;4.23;;;3.83;;
3149;SDS011;32503;47.748;8.960;2022-12-29T00:42:19;4.50;;;4.20;;
3149;SDS011;32503;47.748;8.960;2022-12-29T00:45:04;6.47;;;5.50;;
3149;SDS011;32503;47.748;8.960;2022-12-29T00:47:32;6.33;;;5.67;;
3149;SDS011;32503;47.748;8.960;2022-12-29T00:50:00;4.70;;;4.30;;
3149;SDS011;32503;47.748;8.960;2022-12-29T00:52:26;8.77;;;3.90;;
3149;SDS011;32503;47.748;8.960;2022-12-29T00:54:53;5.73;;;4.20;;
3149;SDS011;32503;47.748;8.960;2022-12-29T00:57:21;4.57;;;4.27;;
3149;SDS011;32503;47.748;8.960;2022-12-29T00:59:48;3.67;;;3.47;;
3149;SDS011;32503;47.748;8.960;2022-12-29T01:02:15;4.03;;;3.57;;
3149;SDS011;32503;47.748;8.960;2022-12-29T01:04:42;4.50;;;4.20;;
3149;SDS011;32503;47.748;8.960;2022-12-29T01:07:10;3.80;;;3.47;;
3149;SDS011;32503;47.748;8.960;2022-12-29T01:09:37;4.23;;;3.83;;
3149;SDS011;32503;47.748;8.960;2022-12-29T01:12:22;3.47;;;3.27;;
3149;SDS011;32503;47.748;8.960;2022-12-29T01:15:03;4.17;;;3.87;;
3149;SDS011;32503;47.748;8.960;2022-12-29T01:17:31;3.70;;;3.50;;
3149;SDS011;32503;47.748;8.960;2022-12-29T01:19:58;3.60;;;3.40;;
3149;SDS011;32503;47.748;8.960;2022-12-29T01:22:26;2.90;;;2.80;;
3149;SDS011;32503;47.748;8.960;2022-12-29T01:24:54;2.80;;;2.60;;
3149;SDS011;32503;47.748;8.960;2022-12-29T01:27:21;3.30;;;3.00;;
3149;SDS011;32503;47.748;8.960;2022-12-29T01:29:48;2.97;;;2.70;;
3149;SDS011;32503;47.748;8.960;2022-12-29T01:32:15;4.90;;;2.90;;
3149;SDS011;32503;47.748;8.960;2022-12-29T01:34:42;2.27;;;2.17;;
3149;SDS011;32503;47.748;8.960;2022-12-29T01:37:09;2.07;;;1.90;;
3149;SDS011;32503;47.748;8.960;2022-12-29T01:39:38;2.67;;;2.57;;
3149;SDS011;32503;47.748;8.960;2022-12-29T01:42:05;2.20;;;2.10;;
3149;SDS011;32503;47.748;8.960;2022-12-29T01:44:47;2.20;;;2.10;;
3149;SDS011;32503;47.748;8.960;2022-12-29T01:47:24;2.23;;;2.13;;
3149;SDS011;32503;47.748;8.960;2022-12-29T01:49:59;2.60;;;2.50;;
3149;SDS011;32503;47.748;8.960;2022-12-29T01:52:32;2.40;;;2.30;;
3149;SDS011;32503;47.748;8.960;2022-12-29T01:55:05;2.30;;;2.10;;
3149;SDS011;32503;47.748;8.960;2022-12-29T01:57:34;2.60;;;2.40;;
3149;SDS011;32503;47.748;8.960;2022-12-29T02:00:07;2.27;;;2.17;;
3149;SDS011;32503;47.748;8.960;2022-12-29T02:02:37;2.03;;;1.93;;
3149;SDS011;32503;47.748;8.960;2022-12-29T02:05:05;2.63;;;2.43;;
3149;SDS011;32503;47.748;8.960;2022-12-29T02:07:37;1.70;;;1.60;;
3149;SDS011;32503;47.748;8.960;2022-12-29T02:10:07;1.90;;;1.80;;
3149;SDS011;32503;47.748;8.960;2022-12-29T02:12:34;3.03;;;2.30;;
3149;SDS011;32503;47.748;8.960;2022-12-29T02:15:02;4.77;;;1.90;;
3149;SDS011;32503;47.748;8.960;2022-12-29T02:17:36;2.27;;;2.17;;
3149;SDS011;32503;47.748;8.960;2022-12-29T02:27:17;2.30;;;2.10;;
3149;SDS011;32503;47.748;8.960;2022-12-29T02:30:39;3.60;;;2.20;;
3149;SDS011;32503;47.748;8.960;2022-12-29T02:33:28;2.13;;;2.03;;
3149;SDS011;32503;47.748;8.960;2022-12-29T02:36:10;11.00;;;6.17;;
3149;SDS011;32503;47.748;8.960;2022-12-29T02:38:49;9.63;;;5.40;;
3149;SDS011;32503;47.748;8.960;2022-12-29T02:41:29;3.60;;;3.30;;
3149;SDS011;32503;47.748;8.960;2022-12-29T02:44:01;3.13;;;2.87;;
3149;SDS011;32503;47.748;8.960;2022-12-29T02:46:41;2.53;;;2.33;;
3149;SDS011;32503;47.748;8.960;2022-12-29T02:49:13;2.07;;;1.97;;
3149;SDS011;32503;47.748;8.960;2022-12-29T02:51:47;1.93;;;1.83;;
3149;SDS011;32503;47.748;8.960;2022-12-29T02:54:20;1.77;;;1.67;;
3149;SDS011;32503;47.748;8.960;2022-12-29T02:57:08;1.53;;;1.43;;
3149;SDS011;32503;47.748;8.960;2022-12-29T02:59:41;3.00;;;2.23;;
3149;SDS011;32503;47.748;8.960;2022-12-29T03:02:17;2.30;;;2.10;;
3149;SDS011;32503;47.748;8.960;2022-12-29T03:05:04;2.27;;;2.17;;
3149;SDS011;32503;47.748;8.960;2022-12-29T03:07:44;3.13;;;2.93;;
3149;SDS011;32503;47.748;8.960;2022-12-29T03:10:19;3.53;;;3.13;;
3149;SDS011;32503;47.748;8.960;2022-12-29T03:13:02;2.00;;;1.90;;
3149;SDS011;32503;47.748;8.960;2022-12-29T03:15:54;4.17;;;3.80;;
3149;SDS011;32503;47.748;8.960;2022-12-29T03:18:36;5.87;;;4.53;;
3149;SDS011;32503;47.748;8.960;2022-12-29T03:21:11;4.70;;;4.27;;
3149;SDS011;32503;47.748;8.960;2022-12-29T03:23:44;3.77;;;3.47;;
3149;SDS011;32503;47.748;8.960;2022-12-29T03:26:16;4.90;;;3.40;;
3149;SDS011;32503;47.748;8.960;2022-12-29T03:28:46;2.77;;;2.60;;
3149;SDS011;32503;47.748;8.960;2022-12-29T03:31:18;2.80;;;2.43;;
3149;SDS011;32503;47.748;8.960;2022-12-29T03:33:50;2.27;;;2.17;;
3149;SDS011;32503;47.748;8.960;2022-12-29T03:36:20;3.17;;;2.80;;
3149;SDS011;32503;47.748;8.960;2022-12-29T03:38:59;2.70;;;2.50;;
3149;SDS011;32503;47.748;8.960;2022-12-29T03:41:32;2.60;;;2.40;;
3149;SDS011;32503;47.748;8.960;2022-12-29T03:44:01;2.80;;;2.60;;
3149;SDS011;32503;47.748;8.960;2022-12-29T03:46:31;2.37;;;2.17;;
3149;SDS011;32503;47.748;8.960;2022-12-29T03:49:00;3.00;;;2.80;;
3149;SDS011;32503;47.748;8.960;2022-12-29T03:51:27;2.67;;;2.47;;
3149;SDS011;32503;47.748;8.960;2022-12-29T03:53:54;3.13;;;2.80;;
3149;SDS011;32503;47.748;8.960;2022-12-29T03:56:21;3.40;;;3.20;;
3149;SDS011;32503;47.748;8.960;2022-12-29T03:58:48;3.60;;;3.13;;
3149;SDS011;32503;47.748;8.960;2022-12-29T04:01:15;3.30;;;2.70;;
3149;SDS011;32503;47.748;8.960;2022-12-29T04:03:42;2.20;;;2.10;;
3149;SDS011;32503;47.748;8.960;2022-12-29T04:06:11;3.07;;;2.20;;
3149;SDS011;32503;47.748;8.960;2022-12-29T04:08:38;2.77;;;2.57;;
3149;SDS011;32503;47.748;8.960;2022-12-29T04:11:05;2.03;;;1.90;;
3149;SDS011;32503;47.748;8.960;2022-12-29T04:13:32;2.80;;;2.60;;
3149;SDS011;32503;47.748;8.960;2022-12-29T04:15:59;2.17;;;1.70;;
3149;SDS011;32503;47.748;8.960;2022-12-29T04:18:26;2.17;;;2.07;;
3149;SDS011;32503;47.748;8.960;2022-12-29T04:20:53;2.87;;;1.77;;
3149;SDS011;32503;47.748;8.960;2022-12-29T04:23:29;1.30;;;1.20;;
3149;SDS011;32503;47.748;8.960;2022-12-29T04:25:58;1.30;;;1.20;;
3149;SDS011;32503;47.748;8.960;2022-12-29T04:28:25;1.80;;;1.70;;
3149;SDS011;32503;47.748;8.960;2022-12-29T04:30:54;2.03;;;1.83;;
3149;SDS011;32503;47.748;8.960;2022-12-29T04:33:21;2.53;;;2.43;;
3149;SDS011;32503;47.748;8.960;2022-12-29T04:35:49;2.33;;;2.17;;
3149;SDS011;32503;47.748;8.960;2022-12-29T04:38:19;1.80;;;1.70;;
3149;SDS011;32503;47.748;8.960;2022-12-29T04:40:48;1.73;;;1.63;;
3149;SDS011;32503;47.748;8.960;2022-12-29T04:43:16;2.37;;;2.17;;
3149;SDS011;32503;47.748;8.960;2022-12-29T04:45:44;2.53;;;2.43;;
3149;SDS011;32503;47.748;8.960;2022-12-29T04:48:13;2.90;;;2.57;;
3149;SDS011;32503;47.748;8.960;2022-12-29T04:50:40;2.60;;;2.50;;
3149;SDS011;32503;47.748;8.960;2022-12-29T04:53:08;2.67;;;2.23;;
3149;SDS011;32503;47.748;8.960;2022-12-29T04:55:36;2.37;;;2.27;;
3149;SDS011;32503;47.748;8.960;2022-12-29T04:58:04;2.60;;;2.50;;
3149;SDS011;32503;47.748;8.960;2022-12-29T05:00:31;2.50;;;2.40;;
3149;SDS011;32503;47.748;8.960;2022-12-29T05:02:58;2.20;;;2.10;;
3149;SDS011;32503;47.748;8.960;2022-12-29T05:05:25;2.17;;;2.03;;
3149;SDS011;32503;47.748;8.960;2022-12-29T05:07:52;2.10;;;2.00;;
3149;SDS011;32503;47.748;8.960;2022-12-29T05:10:20;3.43;;;2.90;;
3149;SDS011;32503;47.748;8.960;2022-12-29T05:12:47;2.87;;;2.57;;
3149;SDS011;32503;47.748;8.960;2022-12-29T05:15:15;2.10;;;2.00;;
3149;SDS011;32503;47.748;8.960;2022-12-29T05:17:43;2.20;;;2.10;;
3149;SDS011;32503;47.748;8.960;2022-12-29T05:20:10;2.67;;;2.47;;
3149;SDS011;32503;47.748;8.960;2022-12-29T05:22:37;2.50;;;2.20;;
3149;SDS011;32503;47.748;8.960;2022-12-29T05:25:05;2.80;;;2.70;;
3149;SDS011;32503;47.748;8.960;2022-12-29T05:27:33;1.87;;;1.77;;
3149;SDS011;32503;47.748;8.960;2022-12-29T05:30:00;2.50;;;2.30;;
3149;SDS011;32503;47.748;8.960;2022-12-29T05:32:28;2.70;;;2.50;;
3149;SDS011;32503;47.748;8.960;2022-12-29T05:34:55;1.80;;;1.70;;
3149;SDS011;32503;47.748;8.960;2022-12-29T05:37:22;2.40;;;2.20;;
3149;SDS011;32503;47.748;8.960;2022-12-29T05:39:49;1.57;;;1.47;;
3149;SDS011;32503;47.748;8.960;2022-12-29T05:42:16;2.40;;;1.80;;
3149;SDS011;32503;47.748;8.960;2022-12-29T05:44:43;2.10;;;2.00;;
3149;SDS011;32503;47.748;8.960;2022-12-29T05:47:10;2.20;;;2.10;;
3149;SDS011;32503;47.748;8.960;2022-12-29T05:49:38;2.43;;;2.30;;
3149;SDS011;32503;47.748;8.960;2022-12-29T05:52:05;4.97;;;4.57;;
3149;SDS011;32503;47.748;8.960;2022-12-29T05:54:32;3.70;;;3.50;;
3149;SDS011;32503;47.748;8.960;2022-12-29T05:57:00;3.77;;;3.57;;
3149;SDS011;32503;47.748;8.960;2022-12-29T05:59:27;3.70;;;3.50;;
3149;SDS011;32503;47.748;8.960;2022-12-29T06:01:54;3.50;;;3.20;;
3149;SDS011;32503;47.748;8.960;2022-12-29T06:04:21;2.70;;;2.60;;
3149;SDS011;32503;47.748;8.960;2022-12-29T06:06:49;2.93;;;2.53;;
3149;SDS011;32503;47.748;8.960;2022-12-29T06:09:16;2.80;;;2.60;;
3149;SDS011;32503;47.748;8.960;2022-12-29T06:11:43;3.10;;;2.90;;
3149;SDS011;32503;47.748;8.960;2022-12-29T06:14:10;3.13;;;2.83;;
3149;SDS011;32503;47.748;8.960;2022-12-29T06:16:37;4.40;;;4.10;;
3149;SDS011;32503;47.748;8.960;2022-12-29T06:19:04;3.97;;;3.73;;
3149;SDS011;32503;47.748;8.960;2022-12-29T06:21:31;4.53;;;2.70;;
3149;SDS011;32503;47.748;8.960;2022-12-29T06:23:59;3.60;;;3.00;;
3149;SDS011;32503;47.748;8.960;2022-12-29T06:26:26;3.23;;;3.10;;
3149;SDS011;32503;47.748;8.960;2022-12-29T06:28:53;2.47;;;2.33;;
3149;SDS011;32503;47.748;8.960;2022-12-29T06:31:20;2.53;;;2.33;;
3149;SDS011;32503;47.748;8.960;2022-12-29T06:33:48;3.03;;;2.87;;
3149;SDS011;32503;47.748;8.960;2022-12-29T06:36:15;2.30;;;2.20;;
3149;SDS011;32503;47.748;8.960;2022-12-29T06:38:42;2.93;;;2.73;;
3149;SDS011;32503;47.748;8.960;2022-12-29T06:41:10;2.43;;;2.20;;
3149;SDS011;32503;47.748;8.960;2022-12-29T06:43:37;4.07;;;2.53;;
3149;SDS011;32503;47.748;8.960;2022-12-29T06:46:04;2.60;;;2.07;;
3149;SDS011;32503;47.748;8.960;2022-12-29T06:48:32;2.40;;;2.20;;
3149;SDS011;32503;47.748;8.960;2022-12-29T06:50:59;1.90;;;1.80;;
3149;SDS011;32503;47.748;8.960;2022-12-29T06:53:26;1.70;;;1.60;;
3149;SDS011;32503;47.748;8.960;2022-12-29T06:55:53;2.50;;;2.30;;
3149;SDS011;32503;47.748;8.960;2022-12-29T06:58:23;2.10;;;1.90;;
3149;SDS011;32503;47.748;8.960;2022-12-29T07:00:50;2.60;;;2.40;;
3149;SDS011;32503;47.748;8.960;2022-12-29T07:03:17;2.80;;;2.60;;
3149;SDS011;32503;47.748;8.960;2022-12-29T07:05:44;2.70;;;2.47;;
3149;SDS011;32503;47.748;8.960;2022-12-29T07:08:11;2.70;;;2.60;;
3149;SDS011;32503;47.748;8.960;2022-12-29T07:10:39;1.83;;;1.73;;
3149;SDS011;32503;47.748;8.960;2022-12-29T07:13:06;8.83;;;7.97;;
3149;SDS011;32503;47.748;8.960;2022-12-29T07:15:34;20.90;;;19.10;;
3149;SDS011;32503;47.748;8.960;2022-12-29T07:18:02;8.23;;;7.53;;
3149;SDS011;32503;47.748;8.960;2022-12-29T07:20:29;3.10;;;2.77;;
3149;SDS011;32503;47.748;8.960;2022-12-29T07:22:56;2.67;;;2.47;;
3149;SDS011;32503;47.748;8.960;2022-12-29T07:25:23;2.53;;;2.00;;
3149;SDS011;32503;47.748;8.960;2022-12-29T07:27:50;1.60;;;1.50;;
3149;SDS011;32503;47.748;8.960;2022-12-29T07:30:17;1.90;;;1.80;;
3149;SDS011;32503;47.748;8.960;2022-12-29T07:32:46;2.00;;;1.90;;
3149;SDS011;32503;47.748;8.960;2022-12-29T07:35:13;2.97;;;2.77;;
3149;SDS011;32503;47.748;8.960;2022-12-29T07:37:40;2.07;;;1.83;;
3149;SDS011;32503;47.748;8.960;2022-12-29T07:40:08;2.40;;;2.30;;
3149;SDS011;32503;47.748;8.960;2022-12-29T07:42:37;2.10;;;1.90;;
3149;SDS011;32503;47.748;8.960;2022-12-29T07:45:05;2.43;;;1.90;;
3149;SDS011;32503;47.748;8.960;2022-12-29T07:47:34;2.73;;;2.53;;
3149;SDS011;32503;47.748;8.960;2022-12-29T07:50:02;2.17;;;2.07;;
3149;SDS011;32503;47.748;8.960;2022-12-29T07:52:31;2.00;;;1.90;;
3149;SDS011;32503;47.748;8.960;2022-12-29T07:54:58;3.30;;;2.17;;
3149;SDS011;32503;47.748;8.960;2022-12-29T07:57:25;2.33;;;2.10;;
3149;SDS011;32503;47.748;8.960;2022-12-29T07:59:52;2.40;;;2.30;;
3149;SDS011;32503;47.748;8.960;2022-12-29T08:02:19;2.43;;;1.87;;
3149;SDS011;32503;47.748;8.960;2022-12-29T08:04:45;2.60;;;2.40;;
3149;SDS011;32503;47.748;8.960;2022-12-29T08:07:14;2.50;;;2.30;;
3149;SDS011;32503;47.748;8.960;2022-12-29T08:09:41;2.60;;;2.40;;
3149;SDS011;32503;47.748;8.960;2022-12-29T08:12:08;3.10;;;2.83;;
3149;SDS011;32503;47.748;8.960;2022-12-29T08:14:36;2.03;;;1.93;;
3149;SDS011;32503;47.748;8.960;2022-12-29T08:17:03;2.00;;;1.80;;
3149;SDS011;32503;47.748;8.960;2022-12-29T08:19:30;3.37;;;3.10;;
3149;SDS011;32503;47.748;8.960;2022-12-29T08:21:57;3.30;;;2.87;;
3149;SDS011;32503;47.748;8.960;2022-12-29T08:24:25;2.87;;;2.63;;
3149;SDS011;32503;47.748;8.960;2022-12-29T08:26:53;3.87;;;3.30;;
3149;SDS011;32503;47.748;8.960;2022-12-29T08:29:20;2.20;;;2.10;;
3149;SDS011;32503;47.748;8.960;2022-12-29T08:31:47;3.43;;;3.23;;
3149;SDS011;32503;47.748;8.960;2022-12-29T08:34:14;3.23;;;3.00;;
3149;SDS011;32503;47.748;8.960;2022-12-29T08:36:41;3.23;;;2.90;;
3149;SDS011;32503;47.748;8.960;2022-12-29T08:39:08;14.77;;;8.63;;
3149;SDS011;32503;47.748;8.960;2022-12-29T08:41:37;4.50;;;4.03;;
3149;SDS011;32503;47.748;8.960;2022-12-29T08:44:04;2.73;;;2.50;;
3149;SDS011;32503;47.748;8.960;2022-12-29T08:46:31;3.50;;;3.30;;
3149;SDS011;32503;47.748;8.960;2022-12-29T08:48:58;4.23;;;3.17;;
3149;SDS011;32503;47.748;8.960;2022-12-29T08:51:25;2.43;;;2.23;;
3149;SDS011;32503;47.748;8.960;2022-12-29T08:53:52;3.00;;;2.80;;
3149;SDS011;32503;47.748;8.960;2022-12-29T08:56:19;2.50;;;2.30;;
3149;SDS011;32503;47.748;8.960;2022-12-29T08:58:50;2.30;;;2.20;;
3149;SDS011;32503;47.748;8.960;2022-12-29T09:01:17;1.90;;;1.80;;
3149;SDS011;32503;47.748;8.960;2022-12-29T09:03:44;1.70;;;1.60;;
3149;SDS011;32503;47.748;8.960;2022-12-29T09:06:12;2.93;;;1.90;;
3149;SDS011;32503;47.748;8.960;2022-12-29T09:08:40;2.50;;;2.40;;
3149;SDS011;32503;47.748;8.960;2022-12-29T09:11:07;2.30;;;1.80;;
3149;SDS011;32503;47.748;8.960;2022-12-29T09:13:36;2.03;;;1.50;;
3149;SDS011;32503;47.748;8.960;2022-12-29T09:16:05;2.20;;;2.00;;
3149;SDS011;32503;47.748;8.960;2022-12-29T09:18:33;1.47;;;1.37;;
3149;SDS011;32503;47.748;8.960;2022-12-29T09:21:01;3.07;;;1.43;;
3149;SDS011;32503;47.748;8.960;2022-12-29T09:23:31;2.33;;;2.13;;
3149;SDS011;32503;47.748;8.960;2022-12-29T09:25:59;2.60;;;2.03;;
3149;SDS011;32503;47.748;8.960;2022-12-29T09:28:27;2.00;;;1.90;;
3149;SDS011;32503;47.748;8.960;2022-12-29T09:30:54;3.43;;;1.73;;
3149;SDS011;32503;47.748;8.960;2022-12-29T09:33:24;2.00;;;1.73;;
3149;SDS011;32503;47.748;8.960;2022-12-29T09:35:52;1.90;;;1.77;;
3149;SDS011;32503;47.748;8.960;2022-12-29T09:38:21;1.50;;;1.40;;
3149;SDS011;32503;47.748;8.960;2022-12-29T09:40:50;1.67;;;1.50;;
3149;SDS011;32503;47.748;8.960;2022-12-29T09:43:41;2.10;;;1.73;;
3149;SDS011;32503;47.748;8.960;2022-12-29T09:46:26;1.97;;;1.87;;
3149;SDS011;32503;47.748;8.960;2022-12-29T09:48:58;1.80;;;1.70;;
3149;SDS011;32503;47.748;8.960;2022-12-29T09:51:38;1.60;;;1.50;;
3149;SDS011;32503;47.748;8.960;2022-12-29T09:54:16;2.03;;;1.80;;
3149;SDS011;32503;47.748;8.960;2022-12-29T09:56:55;2.00;;;1.90;;
3149;SDS011;32503;47.748;8.960;2022-12-29T09:59:24;1.80;;;1.70;;
3149;SDS011;32503;47.748;8.960;2022-12-29T10:02:04;1.70;;;1.60;;
3149;SDS011;32503;47.748;8.960;2022-12-29T10:04:45;3.57;;;1.63;;
3149;SDS011;32503;47.748;8.960;2022-12-29T10:07:13;1.93;;;1.70;;
3149;SDS011;32503;47.748;8.960;2022-12-29T10:09:53;4.70;;;2.07;;
3149;SDS011;32503;47.748;8.960;2022-12-29T10:12:30;5.30;;;2.30;;
3149;SDS011;32503;47.748;8.960;2022-12-29T10:15:09;2.70;;;1.77;;
3149;SDS011;32503;47.748;8.960;2022-12-29T10:17:47;2.47;;;2.30;;
3149;SDS011;32503;47.748;8.960;2022-12-29T10:20:30;3.80;;;2.70;;
3149;SDS011;32503;47.748;8.960;2022-12-29T10:23:11;4.33;;;4.03;;
3149;SDS011;32503;47.748;8.960;2022-12-29T10:25:51;4.30;;;2.37;;
3149;SDS011;32503;47.748;8.960;2022-12-29T10:28:22;2.07;;;1.87;;
3149;SDS011;32503;47.748;8.960;2022-12-29T10:31:04;2.37;;;2.10;;
3149;SDS011;32503;47.748;8.960;2022-12-29T10:33:37;2.20;;;2.10;;
3149;SDS011;32503;47.748;8.960;2022-12-29T10:36:12;1.47;;;1.37;;
3149;SDS011;32503;47.748;8.960;2022-12-29T10:38:45;2.30;;;2.10;;
3149;SDS011;32503;47.748;8.960;2022-12-29T10:41:20;2.10;;;1.80;;
3149;SDS011;32503;47.748;8.960;2022-12-29T10:43:52;3.60;;;2.07;;
3149;SDS011;32503;47.748;8.960;2022-12-29T10:46:23;1.50;;;1.40;;
3149;SDS011;32503;47.748;8.960;2022-12-29T10:48:54;1.50;;;1.40;;
3149;SDS011;32503;47.748;8.960;2022-12-29T10:51:24;2.00;;;1.80;;
3149;SDS011;32503;47.748;8.960;2022-12-29T10:53:55;1.60;;;1.50;;
3149;SDS011;32503;47.748;8.960;2022-12-29T10:56:31;1.40;;;1.30;;
3149;SDS011;32503;47.748;8.960;2022-12-29T10:59:02;1.50;;;1.40;;
3149;SDS011;32503;47.748;8.960;2022-12-29T11:01:42;1.93;;;1.40;;
3149;SDS011;32503;47.748;8.960;2022-12-29T11:04:28;4.07;;;1.50;;
3149;SDS011;32503;47.748;8.960;2022-12-29T11:07:08;2.70;;;2.30;;
3149;SDS011;32503;47.748;8.960;2022-12-29T11:09:37;5.00;;;1.63;;
3149;SDS011;32503;47.748;8.960;2022-12-29T11:12:17;1.43;;;1.33;;
3149;SDS011;32503;47.748;8.960;2022-12-29T11:15:11;1.27;;;1.17;;
3149;SDS011;32503;47.748;8.960;2022-12-29T11:17:44;1.60;;;1.50;;
3149;SDS011;32503;47.748;8.960;2022-12-29T11:20:26;1.90;;;1.30;;
3149;SDS011;32503;47.748;8.960;2022-12-29T11:23:01;2.00;;;1.50;;
3149;SDS011;32503;47.748;8.960;2022-12-29T11:25:30;2.50;;;1.70;;
3149;SDS011;32503;47.748;8.960;2022-12-29T11:27:58;1.40;;;1.30;;
3149;SDS011;32503;47.748;8.960;2022-12-29T11:30:30;1.80;;;1.70;;
3149;SDS011;32503;47.748;8.960;2022-12-29T11:32:58;3.03;;;1.37;;
3149;SDS011;32503;47.748;8.960;2022-12-29T11:35:30;1.67;;;1.40;;
3149;SDS011;32503;47.748;8.960;2022-12-29T11:38:02;1.27;;;1.17;;
3149;SDS011;32503;47.748;8.960;2022-12-29T11:40:31;1.00;;;0.93;;
3149;SDS011;32503;47.748;8.960;2022-12-29T11:43:04;1.67;;;1.17;;
3149;SDS011;32503;47.748;8.960;2022-12-29T11:45:32;3.47;;;1.00;;
3149;SDS011;32503;47.748;8.960;2022-12-29T11:48:06;1.40;;;1.30;;
3149;SDS011;32503;47.748;8.960;2022-12-29T11:50:39;1.40;;;1.30;;
3149;SDS011;32503;47.748;8.960;2022-12-29T11:53:15;0.90;;;0.90;;
3149;SDS011;32503;47.748;8.960;2022-12-29T11:55:50;2.70;;;1.17;;
3149;SDS011;32503;47.748;8.960;2022-12-29T11:58:21;1.30;;;1.20;;
3149;SDS011;32503;47.748;8.960;2022-12-29T12:00:57;0.93;;;0.87;;
3149;SDS011;32503;47.748;8.960;2022-12-29T12:03:31;1.57;;;1.00;;
3149;SDS011;32503;47.748;8.960;2022-12-29T12:06:01;1.83;;;1.17;;
3149;SDS011;32503;47.748;8.960;2022-12-29T12:08:33;1.10;;;1.00;;
3149;SDS011;32503;47.748;8.960;2022-12-29T12:11:06;1.03;;;0.93;;
3149;SDS011;32503;47.748;8.960;2022-12-29T12:13:42;1.03;;;1.00;;
3149;SDS011;32503;47.748;8.960;2022-12-29T12:16:22;0.80;;;0.70;;
3149;SDS011;32503;47.748;8.960;2022-12-29T12:18:57;2.30;;;0.90;;
3149;SDS011;32503;47.748;8.960;2022-12-29T12:21:30;2.03;;;1.30;;
3149;SDS011;32503;47.748;8.960;2022-12-29T12:24:22;1.73;;;1.00;;
3149;SDS011;32503;47.748;8.960;2022-12-29T12:27:03;1.10;;;0.87;;
3149;SDS011;32503;47.748;8.960;2022-12-29T12:29:43;0.77;;;0.77;;
3149;SDS011;32503;47.748;8.960;2022-12-29T12:32:19;2.93;;;1.10;;
3149;SDS011;32503;47.748;8.960;2022-12-29T12:34:52;1.00;;;0.90;;
3149;SDS011;32503;47.748;8.960;2022-12-29T12:37:24;1.30;;;1.20;;
3149;SDS011;32503;47.748;8.960;2022-12-29T12:40:23;1.43;;;1.33;;
3149;SDS011;32503;47.748;8.960;2022-12-29T12:43:23;1.40;;;0.90;;
3149;SDS011;32503;47.748;8.960;2022-12-29T12:46:07;1.03;;;0.93;;
3149;SDS011;32503;47.748;8.960;2022-12-29T12:48:50;3.27;;;0.90;;
3149;SDS011;32503;47.748;8.960;2022-12-29T12:51:33;5.17;;;1.30;;
3149;SDS011;32503;47.748;8.960;2022-12-29T12:54:14;1.00;;;0.90;;
3149;SDS011;32503;47.748;8.960;2022-12-29T12:57:01;1.87;;;1.00;;
3149;SDS011;32503;47.748;8.960;2022-12-29T12:59:38;1.50;;;1.40;;
3149;SDS011;32503;47.748;8.960;2022-12-29T13:02:25;3.93;;;0.90;;
3149;SDS011;32503;47.748;8.960;2022-12-29T13:05:05;1.43;;;0.87;;
3149;SDS011;32503;47.748;8.960;2022-12-29T13:07:52;4.30;;;1.10;;
3149;SDS011;32503;47.748;8.960;2022-12-29T13:10:38;1.63;;;0.70;;
3149;SDS011;32503;47.748;8.960;2022-12-29T13:16:28;1.23;;;1.13;;
3149;SDS011;32503;47.748;8.960;2022-12-29T13:19:03;0.93;;;0.87;;
3149;SDS011;32503;47.748;8.960;2022-12-29T13:21:43;1.10;;;0.93;;
3149;SDS011;32503;47.748;8.960;2022-12-29T13:24:24;0.80;;;0.80;;
3149;SDS011;32503;47.748;8.960;2022-12-29T13:27:03;1.00;;;0.80;;
3149;SDS011;32503;47.748;8.960;2022-12-29T13:29:43;1.50;;;0.90;;
3149;SDS011;32503;47.748;8.960;2022-12-29T13:32:20;1.57;;;1.00;;
3149;SDS011;32503;47.748;8.960;2022-12-29T13:34:59;1.20;;;1.10;;
3149;SDS011;32503;47.748;8.960;2022-12-29T13:37:45;1.03;;;0.93;;
3149;SDS011;32503;47.748;8.960;2022-12-29T13:40:21;1.17;;;0.90;;
3149;SDS011;32503;47.748;8.960;2022-12-29T13:42:51;2.17;;;0.90;;
3149;SDS011;32503;47.748;8.960;2022-12-29T13:45:22;1.77;;;0.80;;
3149;SDS011;32503;47.748;8.960;2022-12-29T13:47:55;2.30;;;1.17;;
3149;SDS011;32503;47.748;8.960;2022-12-29T13:50:33;0.90;;;0.90;;
3149;SDS011;32503;47.748;8.960;2022-12-29T13:53:06;1.30;;;1.20;;
3149;SDS011;32503;47.748;8.960;2022-12-29T13:55:47;1.20;;;1.10;;
3149;SDS011;32503;47.748;8.960;2022-12-29T13:58:24;1.67;;;1.20;;
3149;SDS011;32503;47.748;8.960;2022-12-29T14:01:00;1.27;;;1.17;;
3149;SDS011;32503;47.748;8.960;2022-12-29T14:03:41;1.40;;;0.87;;
3149;SDS011;32503;47.748;8.960;2022-12-29T14:06:16;0.90;;;0.90;;
3149;SDS011;32503;47.748;8.960;2022-12-29T14:08:49;2.63;;;1.27;;
3149;SDS011;32503;47.748;8.960;2022-12-29T14:11:20;3.37;;;1.27;;
3149;SDS011;32503;47.748;8.960;2022-12-29T14:13:52;1.33;;;0.90;;
3149;SDS011;32503;47.748;8.960;2022-12-29T14:16:31;1.10;;;1.00;;
3149;SDS011;32503;47.748;8.960;2022-12-29T14:19:04;1.80;;;0.90;;
3149;SDS011;32503;47.748;8.960;2022-12-29T14:21:40;0.87;;;0.80;;
3149;SDS011;32503;47.748;8.960;2022-12-29T14:33:17;2.60;;;2.50;;
3149;SDS011;32503;47.748;8.960;2022-12-29T14:35:47;1.37;;;1.27;;
3149;SDS011;32503;47.748;8.960;2022-12-29T14:38:27;2.50;;;0.90;;
3149;SDS011;32503;47.748;8.960;2022-12-29T14:41:16;1.40;;;0.90;;
3149;SDS011;32503;47.748;8.960;2022-12-29T14:43:54;1.63;;;0.90;;
3149;SDS011;32503;47.748;8.960;2022-12-29T14:49:24;2.30;;;1.23;;
3149;SDS011;32503;47.748;8.960;2022-12-29T14:51:54;1.50;;;1.40;;
3149;SDS011;32503;47.748;8.960;2022-12-29T14:57:27;1.30;;;1.20;;
3149;SDS011;32503;47.748;8.960;2022-12-29T15:00:07;1.27;;;1.17;;
3149;SDS011;32503;47.748;8.960;2022-12-29T15:02:48;1.07;;;0.97;;
3149;SDS011;32503;47.748;8.960;2022-12-29T15:05:32;1.93;;;1.83;;
3149;SDS011;32503;47.748;8.960;2022-12-29T15:08:04;1.70;;;1.60;;
3149;SDS011;32503;47.748;8.960;2022-12-29T15:10:34;1.20;;;1.10;;
3149;SDS011;32503;47.748;8.960;2022-12-29T15:13:13;2.30;;;1.90;;
3149;SDS011;32503;47.748;8.960;2022-12-29T15:15:43;1.27;;;1.07;;
3149;SDS011;32503;47.748;8.960;2022-12-29T15:18:25;2.20;;;1.40;;
3149;SDS011;32503;47.748;8.960;2022-12-29T15:20:57;1.30;;;1.10;;
3149;SDS011;32503;47.748;8.960;2022-12-29T15:23:26;1.60;;;1.33;;
3149;SDS011;32503;47.748;8.960;2022-12-29T15:25:56;1.20;;;1.03;;
3149;SDS011;32503;47.748;8.960;2022-12-29T15:28:25;3.17;;;0.90;;
3149;SDS011;32503;47.748;8.960;2022-12-29T15:30:54;1.30;;;1.00;;
3149;SDS011;32503;47.748;8.960;2022-12-29T15:33:27;2.53;;;1.00;;
3149;SDS011;32503;47.748;8.960;2022-12-29T15:35:57;1.10;;;1.00;;
3149;SDS011;32503;47.748;8.960;2022-12-29T15:38:35;1.80;;;1.70;;
3149;SDS011;32503;47.748;8.960;2022-12-29T15:41:04;0.90;;;0.77;;
3149;SDS011;32503;47.748;8.960;2022-12-29T15:43:45;1.20;;;1.10;;
3149;SDS011;32503;47.748;8.960;2022-12-29T15:46:21;1.30;;;1.10;;
3149;SDS011;32503;47.748;8.960;2022-12-29T15:48:48;1.10;;;1.00;;
3149;SDS011;32503;47.748;8.960;2022-12-29T15:51:18;1.37;;;1.27;;
3149;SDS011;32503;47.748;8.960;2022-12-29T15:53:52;1.00;;;0.80;;
3149;SDS011;32503;47.748;8.960;2022-12-29T15:56:20;1.20;;;1.00;;